Share

Kanazawa, Japan

12:35 AM JST on April 24, 2014 (GMT +0900)
Komatsu (RJNK) Elev 30 ft | 36.39 °N, 136.41 °E | Change Station

Current weather conditions updated 35 minutes ago

Clear
Clear
46 °F
Feels Like 45 °F
N
4
Wind Variable Wind from SE
Sunrise 5:08 AM
Sunset 6:35 PM
Moon Waning Crescent

Today is forecast to be Much Warmer than yesterday.

Pressure 30.15 in
Visibility 6.2 miles
Clouds
Windchill 45 °F
Dew Point 45 °F
Humidity 93%
Rainfall 0.00 in
Snow Depth Not available.
UV Not available.
Pollen Not available.
Air Quality Not available.
Flu Activity Not available.
METAR RJNK 231500Z 14003KT 9999 NSC 08/07 Q1021

More Conditions Fewer Conditions

Pressure 30.15 in
Visibility 6.2 miles
Clouds
Windchill 45 °F
Dew Point 45 °F
Humidity 93%
Rainfall 0.00 in
Snow Depth Not available.
UV Not available.
Pollen Not available.
Air Quality Not available.
Flu Activity Not available.
METAR RJNK 231500Z 14003KT 9999 NSC 08/07 Q1021

More Conditions Fewer Conditions

10-Day Weather Forecast

Almanac

Astronomy

Apr. 24, 2014 Rise Set
Actual Time 5:08 AM JST 6:35 PM JST
Civil Twilight 4:41 AM JST 7:02 PM JST
Nautical Twilight 4:09 AM JST 7:34 PM JST
Astronomical Twilight 3:35 AM JST 8:09 PM JST
Moon 1:46 AM JST (4/24) 1:17 PM JST (4/24)
Length of Visible Light 14h 20m
Length of Day
13h 26m
Tomorrow will be 2m 6s longer.
Waning Crescent, 35% of the Moon is Illuminated
Apr 23
Waning Crescent
Apr 29
New
May 6
First Quarter
May 14
Full
May 21
Last Quarter

Yesterday's Extremes

Country Highs Country Lows

Community

  • spring flowers
    spring flowers
  • Earth Day Spectrum Ove' Blue
    Earth Day Spectrum Ove' Blue
  • BARN B&W
    BARN B&W
  • April Sunset
    April Sunset
  • Waiting..
    Waiting..

WunderPhotos

Upload Photos

1,704,316 photos uploaded!

Nearby

Snow Depth

Not available.

Coastal Water Temperatures

Place Temperature
No Stations Reporting

Earthquake Activity

City Distance Mag. Time & Date
No recent earthquake activity has been reported nearby.
Minimum magnitude displayed is 2.5.

Nearby Weather Stations

Station Location Temp. Windchill Dew Point Humidity Wind Precip. Elev Updated Type
JR9MAR-WX, TONAMI 49.1 °F 49 °F 44 °F 82% SSW  at  1.8 mph 0.00 in / hr 325 ft 12:35 AM JST Rapid Fire
JR9MAR-WX, TONAMI 51.1 °F - 46 °F 82% SE  at  0.2 mph 0.00 in / hr 325 ft 9:37 PM JST Rapid Fire

Show More Stations Show Fewer Stations

What do you think?

We're not finished. Please let us know what you like, what you don't like, and what you are still missing.